Dai2kousei — JD2542 — position and weather

sailwx.info

Track history (hours):
 
Tides and Currents Weather Stations Pressure Air Temp Water Temp Dewpoint Dewpoint Depression Visibility Wind Speed Wind Dir Waves Ship Positions

Dai2kousei

Last reported at 2014-Jul-24 15:32 UTC. Time now 2014-Jul-24 21:41 UTC.
Position N 34°06' E 134°46'.

Length 77 m; draft 3 m.

MMSI: 431000467.

Date/timePositionNaut miles runAvg speedWind from/ knotsBaromVisibWave heightAir tempDewpointWater temp
2014-Jul-24 15:32N 34°06' E 134°46'194 8.8
2014-Jul-23 17:27N 35°02' E 138°31'37 1.0
2014-Jul-22 05:23N 34°47' E 139°12'17 9.5
2014-Jul-22 03:33N 34°58' E 139°28'1010.0
2014-Jul-22 02:34N 35°05' E 139°37'1111.4
2014-Jul-22 01:34N 35°13' E 139°46'1111.1
2014-Jul-22 00:34N 35°24' E 139°43'7 6.6
2014-Jul-21 23:34N 35°24' E 139°51'0 0.0
2014-Jul-21 22:34N 35°24' E 139°51'0 0.0
2014-Jul-21 21:33N 35°24' E 139°51'0 0.0
2014-Jul-21 20:34N 35°24' E 139°51'0 0.0
2014-Jul-21 20:18N 35°24' E 139°51'0 0.1
2014-Jul-21 19:33N 35°24' E 139°51'3 2.5
2014-Jul-21 18:34N 35°22' E 139°53'0 0.0
2014-Jul-21 17:33N 35°22' E 139°53'0 0.0
2014-Jul-21 16:34N 35°22' E 139°53'0 0.0
2014-Jul-21 15:34N 35°22' E 139°53'0 0.0
2014-Jul-21 14:33N 35°22' E 139°53'0 0.0
2014-Jul-21 13:33N 35°22' E 139°53'0 0.0
2014-Jul-21 12:34N 35°22' E 139°53'0 0.0
2014-Jul-21 11:34N 35°22' E 139°53'1 1.3
2014-Jul-21 10:34N 35°23' E 139°51'7 7.0
2014-Jul-21 09:34N 35°17' E 139°45'1010.3
2014-Jul-21 08:34N 35°07' E 139°45'1010.2
2014-Jul-21 07:34N 34°57' E 139°44'11 8.5
2014-Jul-21 06:13N 34°53' E 139°57'811.6
2014-Jul-21 05:29N 34°58' E 140°06'1111.9
2014-Jul-21 04:33N 35°04' E 140°18'1211.3
2014-Jul-21 03:32N 35°12' E 140°28'1411.2
2014-Jul-21 02:19N 35°23' E 140°38'1011.1
2014-Jul-21 01:24N 35°31' E 140°45'  
2014-Jul-16 11:17N 34°53' E 139°58'810.8
2014-Jul-16 10:31N 34°53' E 139°47'1010.9
2014-Jul-16 09:33N 35°03' E 139°43'1110.4
2014-Jul-16 08:32N 35°13' E 139°46'1010.0
2014-Jul-16 07:33N 35°22' E 139°42'9 8.9
2014-Jul-16 06:33N 35°30' E 139°47'2 1.8
2014-Jul-16 05:34N 35°31' E 139°45'0 0.0
2014-Jul-16 04:34N 35°31' E 139°45'0 0.0
2014-Jul-16 03:34N 35°31' E 139°45'0 0.0
2014-Jul-16 02:34N 35°31' E 139°45'0 0.0
2014-Jul-16 01:34N 35°31' E 139°45'0 0.0
2014-Jul-16 00:34N 35°31' E 139°45'0 0.0
2014-Jul-15 23:33N 35°31' E 139°45'0 0.0
2014-Jul-15 22:34N 35°31' E 139°45'3 3.4
2014-Jul-15 21:34N 35°29' E 139°48'0 0.0
2014-Jul-15 20:34N 35°29' E 139°48'0 0.1
2014-Jul-15 19:34N 35°29' E 139°48'0 0.0
2014-Jul-15 18:34N 35°29' E 139°48'0 0.0
2014-Jul-15 17:34N 35°29' E 139°48'0 0.1
2014-Jul-15 16:34N 35°29' E 139°48'0 0.0
2014-Jul-15 15:33N 35°29' E 139°48'0 0.1
2014-Jul-15 14:33N 35°29' E 139°48'0 0.0
2014-Jul-15 13:34N 35°29' E 139°48'0 0.0
2014-Jul-15 12:34N 35°29' E 139°48'0 0.1
2014-Jul-15 11:33N 35°29' E 139°48'0 0.0
2014-Jul-15 10:33N 35°29' E 139°48'0 0.0
2014-Jul-15 09:33N 35°29' E 139°48'0 0.0
2014-Jul-15 08:34N 35°29' E 139°48'0 0.1
2014-Jul-15 07:34N 35°29' E 139°48'0 0.0
2014-Jul-15 06:33N 35°29' E 139°48'0 0.1
2014-Jul-15 05:33N 35°29' E 139°48'0 0.0
2014-Jul-15 04:33N 35°29' E 139°48'0 0.0
2014-Jul-15 03:33N 35°29' E 139°48'0 0.0
2014-Jul-15 02:33N 35°29' E 139°48'0 0.0
2014-Jul-15 01:33N 35°29' E 139°48'0 0.0
2014-Jul-15 00:34N 35°29' E 139°48'0 0.0
2014-Jul-14 23:33N 35°29' E 139°48'0 0.0
2014-Jul-14 22:33N 35°29' E 139°48'0 0.0
2014-Jul-14 21:34N 35°29' E 139°48'0 0.0
2014-Jul-14 20:34N 35°29' E 139°48'0 0.0
2014-Jul-14 19:33N 35°29' E 139°48'0 0.0
2014-Jul-14 18:34N 35°29' E 139°48'0 0.0
2014-Jul-14 17:34N 35°29' E 139°48'0 0.0
2014-Jul-14 16:34N 35°29' E 139°48'0 0.0
2014-Jul-14 15:34N 35°29' E 139°48'  
Track history (hours):
 
Tides and Currents Weather Stations Pressure Air Temp Water Temp Dewpoint Dewpoint Depression Visibility Wind Speed Wind Dir Waves Ship Positions

Dai2kousei

Last reported at 2014-Jul-24 15:32 UTC. Time now 2014-Jul-24 21:41 UTC.
Position N 34°06' E 134°46'.

Length 77 m; draft 3 m.

MMSI: 431000467.

Date/timePositionNaut miles runAvg speedWind from/ knotsBaromVisibWave heightAir tempDewpointWater temp
2014-Jul-24 15:32N 34°06' E 134°46'194 8.8
2014-Jul-23 17:27N 35°02' E 138°31'37 1.0
2014-Jul-22 05:23N 34°47' E 139°12'17 9.5
2014-Jul-22 03:33N 34°58' E 139°28'1010.0
2014-Jul-22 02:34N 35°05' E 139°37'1111.4
2014-Jul-22 01:34N 35°13' E 139°46'1111.1
2014-Jul-22 00:34N 35°24' E 139°43'7 6.6
2014-Jul-21 23:34N 35°24' E 139°51'0 0.0
2014-Jul-21 22:34N 35°24' E 139°51'0 0.0
2014-Jul-21 21:33N 35°24' E 139°51'0 0.0
2014-Jul-21 20:34N 35°24' E 139°51'0 0.0
2014-Jul-21 20:18N 35°24' E 139°51'0 0.1
2014-Jul-21 19:33N 35°24' E 139°51'3 2.5
2014-Jul-21 18:34N 35°22' E 139°53'0 0.0
2014-Jul-21 17:33N 35°22' E 139°53'0 0.0
2014-Jul-21 16:34N 35°22' E 139°53'0 0.0
2014-Jul-21 15:34N 35°22' E 139°53'0 0.0
2014-Jul-21 14:33N 35°22' E 139°53'0 0.0
2014-Jul-21 13:33N 35°22' E 139°53'0 0.0
2014-Jul-21 12:34N 35°22' E 139°53'0 0.0
2014-Jul-21 11:34N 35°22' E 139°53'1 1.3
2014-Jul-21 10:34N 35°23' E 139°51'7 7.0
2014-Jul-21 09:34N 35°17' E 139°45'1010.3
2014-Jul-21 08:34N 35°07' E 139°45'1010.2
2014-Jul-21 07:34N 34°57' E 139°44'11 8.5
2014-Jul-21 06:13N 34°53' E 139°57'811.6
2014-Jul-21 05:29N 34°58' E 140°06'1111.9
2014-Jul-21 04:33N 35°04' E 140°18'1211.3
2014-Jul-21 03:32N 35°12' E 140°28'1411.2
2014-Jul-21 02:19N 35°23' E 140°38'1011.1
2014-Jul-21 01:24N 35°31' E 140°45'  
2014-Jul-16 11:17N 34°53' E 139°58'810.8
2014-Jul-16 10:31N 34°53' E 139°47'1010.9
2014-Jul-16 09:33N 35°03' E 139°43'1110.4
2014-Jul-16 08:32N 35°13' E 139°46'1010.0
2014-Jul-16 07:33N 35°22' E 139°42'9 8.9
2014-Jul-16 06:33N 35°30' E 139°47'2 1.8
2014-Jul-16 05:34N 35°31' E 139°45'0 0.0
2014-Jul-16 04:34N 35°31' E 139°45'0 0.0
2014-Jul-16 03:34N 35°31' E 139°45'0 0.0
2014-Jul-16 02:34N 35°31' E 139°45'0 0.0
2014-Jul-16 01:34N 35°31' E 139°45'0 0.0
2014-Jul-16 00:34N 35°31' E 139°45'0 0.0
2014-Jul-15 23:33N 35°31' E 139°45'0 0.0
2014-Jul-15 22:34N 35°31' E 139°45'3 3.4
2014-Jul-15 21:34N 35°29' E 139°48'0 0.0
2014-Jul-15 20:34N 35°29' E 139°48'0 0.1
2014-Jul-15 19:34N 35°29' E 139°48'0 0.0
2014-Jul-15 18:34N 35°29' E 139°48'0 0.0
2014-Jul-15 17:34N 35°29' E 139°48'0 0.1
2014-Jul-15 16:34N 35°29' E 139°48'0 0.0
2014-Jul-15 15:33N 35°29' E 139°48'0 0.1
2014-Jul-15 14:33N 35°29' E 139°48'0 0.0
2014-Jul-15 13:34N 35°29' E 139°48'0 0.0
2014-Jul-15 12:34N 35°29' E 139°48'0 0.1
2014-Jul-15 11:33N 35°29' E 139°48'0 0.0
2014-Jul-15 10:33N 35°29' E 139°48'0 0.0
2014-Jul-15 09:33N 35°29' E 139°48'0 0.0
2014-Jul-15 08:34N 35°29' E 139°48'0 0.1
2014-Jul-15 07:34N 35°29' E 139°48'0 0.0
2014-Jul-15 06:33N 35°29' E 139°48'0 0.1
2014-Jul-15 05:33N 35°29' E 139°48'0 0.0
2014-Jul-15 04:33N 35°29' E 139°48'0 0.0
2014-Jul-15 03:33N 35°29' E 139°48'0 0.0
2014-Jul-15 02:33N 35°29' E 139°48'0 0.0
2014-Jul-15 01:33N 35°29' E 139°48'0 0.0
2014-Jul-15 00:34N 35°29' E 139°48'0 0.0
2014-Jul-14 23:33N 35°29' E 139°48'0 0.0
2014-Jul-14 22:33N 35°29' E 139°48'0 0.0
2014-Jul-14 21:34N 35°29' E 139°48'0 0.0
2014-Jul-14 20:34N 35°29' E 139°48'0 0.0
2014-Jul-14 19:33N 35°29' E 139°48'0 0.0
2014-Jul-14 18:34N 35°29' E 139°48'0 0.0
2014-Jul-14 17:34N 35°29' E 139°48'0 0.0
2014-Jul-14 16:34N 35°29' E 139°48'0 0.0
2014-Jul-14 15:34N 35°29' E 139°48'  

Dump ship's entire track history